首页
METAR-TAF:

METAR-TAF

机场 :

Chicago Rockford International Airport

罗克福德, 伊利诺伊州, 美国

纬度: 42-11-34N, 经度: 089-05-36W, 海拔: 224米

当前天气观测

该预报发布于52分钟前的01:54 UTC
风速3节,风向东转东北
温度 28°C
湿度 58%
气压 1018 hPa
能見度: 16.1公里
散云层高于6000英尺
多云层高于14000英尺
多云层高于25000英尺

METAR: KRFD 270154Z 07003KT 10SM SCT060 BKN140 BKN250 28/19 A3007 RMK AO2 LTG DSNT SE SLP178 T02780189

时间: 21:46 (02:46 UTC)

预报

该预报发布于3小时和19分钟前的23:27 UTC
预报有效从27日的 00点(UTC)到 27日的 24点(UTC)
风速4节,风向多变
能見度: 10公里
散云层高于6000英尺
多云层高于25000英尺
从 27日的 0200点(UTC)
风速3节,风向多变
能見度: 10公里
少量云层高于5000英尺
散云层高于25000英尺
从 27日的 1600点(UTC)
风速10节,风向南转西南,有时为18节阵风
能見度: 10公里
散云层高于5000英尺
多云层高于25000英尺
几率 30%
从 27日的 20点(UTC)到 27日的 24点(UTC)
能見度: 6.4公里
多云层高于4000英尺, 积雨云.
雷暴, 小雨

TAF: KRFD 262327Z 2700/2724 VRB04KT P6SM SCT060 BKN250 FM270200 VRB03KT P6SM FEW050 SCT250 FM271600 20010G18KT P6SM SCT050 BKN250 PROB30 2720/2724 4SM -TSRA BKN040CB

超过4000个机场的气象观测和天气预报(METAR&TAF报告)。

可查询的气象台以黄色和红色小点在地图上表示。

将鼠标移到小点上方,可查看气象台名称。

然后点击查看天气观测和预报。

如需切换地图:点击带黑十字的绿色按钮放大地图;点击带横线的绿色按钮缩小地图;或者点击绿色箭头查看邻近地区的地图。


METAR-TAF: